Portada
METAR-TAF:

METAR-TAF

Aeropuertos :

Lérida, España

Lleida-Alguaire

latitud: 41-43-40N, longitud: 000-32-09E, altitud: 350 m

METAR: falta

Hora: 12:21 (11:21 UTC)

Pronóstico

El informe se hizo hace 21 horas y 21 minutos, a las 14:00 UTC
Pronóstico válido del 21 a las 15 UTC al 22 a las 15 UTC
Viento 4 kt con dirección variable
Visibilidad 10 km o más
sin nubes por debajo de 1500 m y sin presencia de cumulonimbus.

TAF: LEDA 211400Z 2115/2215 VRB04KT CAVOK TX16/2213Z TNM01/2206Z

Observaciones y pronósticos meteorológicos de más de 4000 aeropuertos (mensajes METAR y TAF).

Los puntos amarillos y rojos representan las estaciones disponibles.

Ponga el ratón en el punto deseado para ver el nombre de la estación.

Haga clic para ver las observaciones y los pronósticos meteorológicos.

Para cambiar el mapa : haga clic en los botones verdes con una cruz de color negro para hacer un zoom, en el botón verde con un guión para alejar o en las flechas verdes para mapas adyacentes.


METAR-TAF: